Buxton, United Kingdom
Current Conditions -  °F | °C
As of 8:20 AM on Monday 24 Nov 2014 (Local Time) from EGCC Reporting Station
Few Clouds Few Clouds  
Wind Chill: 31°   Ceiling: Unl
Heat Index: 36°   Visibility: 6mi
Dew Point: 36°   Wind: 6mph
Humidity: 100%   Direction: 190°S
Pressure: 30.27"   Gusts: NA
Location:  53.26°N, 1.91°W
Report Text: EGCC 240820Z 19005KT 9999 FEW026 02/02 Q1025 NOSIG
Loading
Personal Weather Stations






























Interactive Weather Map New forecast layout! Learn more

10-Day Weather Forecast

Advertisements
Track Severe Weather on mobile